Terminal Aerodrome Forecast
Issued by NWS

Home | Current Version | Previous Version | Text Only | Print | Product List | Glossary On
Versions: 1 2 3 4 5 6 7 8 9 10 11 12 13 14 15
000
FTUS43 KDTX 302320
TAFDET
TAF
KDET 302320Z 3100/3124 31012G20KT P6SM SCT060 BKN250
     FM310100 34008KT P6SM BKN150
     FM310500 12007KT 5SM -RA BR OVC020
     FM310700 05010KT 3SM -RA BR OVC008
     FM311200 02014KT P6SM BKN025 OVC040
     FM311800 36007KT P6SM SCT025 BKN060=

USA.gov is the U.S. government's official web portal to all federal, state and local government web resources and services.